createdAt,value
2023-03-22T00:01:49.091Z,89.92
2023-03-22T00:05:56.155Z,89.59
2023-03-22T00:09:57.514Z,89.37
2023-03-22T00:13:58.952Z,89.29
2023-03-22T00:18:00.371Z,88.97
2023-03-22T00:22:03.322Z,88.89
2023-03-22T00:26:04.837Z,88.90
2023-03-22T00:30:06.921Z,89.01
2023-03-22T00:34:08.391Z,89.02
2023-03-22T00:38:11.119Z,88.64
2023-03-22T00:42:12.443Z,89.50
2023-03-22T00:46:14.424Z,89.13
2023-03-22T00:50:15.899Z,88.85
2023-03-22T00:54:18.656Z,89.02
2023-03-22T00:58:20.081Z,88.82
2023-03-22T01:02:21.421Z,88.68
2023-03-22T01:06:22.782Z,88.53
2023-03-22T01:10:25.488Z,88.73
2023-03-22T01:14:27.416Z,89.34
2023-03-22T01:18:28.769Z,88.75
2023-03-22T01:22:30.169Z,88.82
2023-03-22T01:26:32.939Z,89.08
2023-03-22T01:30:34.313Z,88.70
2023-03-22T01:34:35.712Z,88.25
2023-03-22T01:38:37.066Z,88.57
2023-03-22T01:42:39.785Z,89.26
2023-03-22T01:46:41.243Z,88.88
2023-03-22T01:50:45.257Z,88.89
2023-03-22T01:54:47.758Z,88.85
2023-03-22T01:58:51.553Z,88.94
2023-03-22T02:02:53.236Z,88.70
2023-03-22T02:06:55.071Z,88.49
2023-03-22T02:10:56.448Z,88.83
2023-03-22T02:15:03.265Z,88.48
2023-03-22T02:19:14.812Z,88.37
2023-03-22T02:23:34.165Z,88.88
2023-03-22T02:27:50.423Z,89.92
2023-03-22T02:32:04.714Z,90.41
2023-03-22T02:36:19.027Z,90.17
2023-03-22T02:40:25.639Z,90.32
2023-03-22T02:44:33.490Z,90.46
2023-03-22T02:48:39.303Z,90.25
2023-03-22T02:52:43.121Z,90.02
2023-03-22T02:56:48.324Z,89.95
2023-03-22T03:00:52.013Z,90.39
2023-03-22T03:04:54.068Z,90.29
2023-03-22T03:08:55.778Z,89.72
2023-03-22T03:12:59.217Z,89.91
2023-03-22T03:17:06.386Z,90.41
2023-03-22T03:21:12.208Z,90.39
2023-03-22T03:25:18.066Z,90.71
2023-03-22T03:29:22.569Z,90.31
2023-03-22T03:33:25.425Z,90.06
2023-03-22T03:37:29.399Z,89.92
2023-03-22T03:41:31.742Z,88.96
2023-03-22T03:45:35.370Z,88.70
2023-03-22T03:49:36.780Z,88.58
2023-03-22T03:53:38.131Z,89.50
2023-03-22T03:57:39.521Z,89.41
2023-03-22T04:01:42.416Z,89.40
2023-03-22T04:05:44.012Z,88.92
2023-03-22T04:09:45.392Z,89.30
2023-03-22T04:13:46.763Z,88.98
2023-03-22T04:17:49.566Z,88.71
2023-03-22T04:21:50.910Z,89.30
2023-03-22T04:25:52.312Z,89.41
2023-03-22T04:29:53.636Z,89.78
2023-03-22T04:33:56.370Z,89.27
2023-03-22T04:37:57.725Z,89.23
2023-03-22T04:41:59.120Z,90.12
2023-03-22T04:46:00.779Z,90.61
2023-03-22T04:50:03.659Z,91.06
2023-03-22T04:54:05.329Z,90.23
2023-03-22T04:58:06.662Z,89.89
2023-03-22T05:02:07.993Z,90.26
2023-03-22T05:06:11.137Z,90.00
2023-03-22T05:10:12.590Z,90.36
2023-03-22T05:14:13.938Z,90.25
2023-03-22T05:18:15.609Z,90.31
2023-03-22T05:22:18.523Z,90.57
2023-03-22T05:26:19.898Z,90.63
2023-03-22T05:30:21.224Z,90.39
2023-03-22T05:34:22.564Z,89.68
2023-03-22T05:38:25.261Z,90.48
2023-03-22T05:42:26.637Z,90.66
2023-03-22T05:46:28.040Z,91.40
2023-03-22T05:50:29.395Z,90.92
2023-03-22T05:54:32.121Z,90.71
2023-03-22T05:58:33.473Z,90.07
2023-03-22T06:02:35.090Z,89.99
2023-03-22T06:06:36.458Z,89.57
2023-03-22T06:10:39.408Z,89.12
2023-03-22T06:14:40.898Z,87.75
2023-03-22T06:18:42.274Z,87.48
2023-03-22T06:22:43.645Z,86.99
2023-03-22T06:26:46.366Z,86.06
2023-03-22T06:30:47.848Z,85.57
2023-03-22T06:34:49.212Z,84.57
2023-03-22T06:38:50.624Z,84.07
2023-03-22T06:42:53.605Z,83.42
2023-03-22T06:46:55.107Z,82.76
2023-03-22T06:50:56.473Z,81.92
2023-03-22T06:54:57.840Z,81.60
2023-03-22T06:59:00.571Z,81.22
2023-03-22T07:03:01.922Z,80.89
2023-03-22T07:07:03.262Z,79.26
2023-03-22T07:11:05.005Z,78.62
2023-03-22T07:15:08.668Z,78.94
2023-03-22T07:19:10.091Z,77.83
2023-03-22T07:23:11.448Z,77.67
2023-03-22T07:27:12.819Z,76.78
2023-03-22T07:31:15.666Z,76.73
2023-03-22T07:35:17.242Z,76.63
2023-03-22T07:39:18.636Z,75.75
2023-03-22T07:43:20.017Z,74.21
2023-03-22T07:47:39.547Z,71.61
2023-03-22T07:51:42.018Z,71.35
2023-03-22T07:55:43.427Z,70.27
2023-03-22T07:59:44.783Z,69.96
2023-03-22T08:03:47.516Z,69.08
2023-03-22T08:07:48.872Z,66.34
2023-03-22T08:11:50.215Z,67.01
2023-03-22T08:15:51.573Z,67.20
2023-03-22T08:19:54.311Z,65.48
2023-03-22T08:23:55.643Z,66.02
2023-03-22T08:27:57.241Z,66.71
2023-03-22T08:31:58.682Z,65.65
2023-03-22T08:36:11.923Z,66.03
2023-03-22T08:40:13.533Z,65.80
2023-03-22T08:44:14.904Z,65.45
2023-03-22T08:48:16.438Z,63.68
2023-03-22T08:52:19.207Z,64.96
2023-03-22T08:56:20.576Z,63.77
2023-03-22T09:00:21.963Z,63.92
2023-03-22T09:04:23.370Z,62.16
2023-03-22T09:08:26.151Z,59.20
2023-03-22T09:12:27.551Z,58.62
2023-03-22T09:16:29.082Z,57.46
2023-03-22T09:20:30.465Z,57.35
2023-03-22T09:24:33.193Z,57.33
2023-03-22T09:28:35.101Z,55.87
2023-03-22T09:32:36.679Z,54.08
2023-03-22T09:36:38.027Z,53.54
2023-03-22T09:40:50.424Z,53.54
2023-03-22T09:44:52.204Z,52.53
2023-03-22T09:48:53.606Z,55.35
2023-03-22T09:52:55.124Z,56.27
2023-03-22T09:57:00.178Z,56.44
2023-03-22T10:01:05.196Z,56.38
2023-03-22T10:05:13.318Z,56.06
2023-03-22T10:09:16.514Z,55.48
2023-03-22T10:13:23.499Z,57.00
2023-03-22T10:17:26.319Z,55.55
2023-03-22T10:21:27.758Z,55.95
2023-03-22T10:25:33.348Z,53.87
2023-03-22T10:29:38.304Z,54.80
2023-03-22T10:33:42.538Z,55.42
2023-03-22T10:37:46.156Z,55.15
2023-03-22T10:41:48.665Z,54.65
2023-03-22T10:45:52.530Z,53.84
2023-03-22T10:49:55.957Z,53.63
2023-03-22T10:53:57.773Z,51.43
2023-03-22T10:58:05.008Z,50.11
2023-03-22T11:02:16.496Z,50.50
2023-03-22T11:06:19.065Z,49.52
2023-03-22T11:10:25.030Z,49.37
2023-03-22T11:14:29.391Z,49.52
2023-03-22T11:18:32.988Z,48.26
2023-03-22T11:22:36.119Z,48.40
2023-03-22T11:26:40.758Z,49.31
2023-03-22T11:30:56.935Z,47.80
2023-03-22T11:35:00.920Z,48.05
2023-03-22T11:39:05.870Z,47.23
2023-03-22T11:43:12.401Z,45.97
2023-03-22T11:47:14.116Z,45.72
2023-03-22T11:51:18.094Z,45.99
2023-03-22T11:55:19.831Z,45.80
2023-03-22T11:59:23.093Z,46.01
2023-03-22T12:03:27.479Z,45.60
2023-03-22T12:07:31.589Z,44.40
2023-03-22T12:11:35.921Z,45.36
2023-03-22T12:15:40.202Z,45.68
2023-03-22T12:19:45.954Z,44.79
2023-03-22T12:23:48.715Z,44.57
2023-03-22T12:27:53.233Z,42.74
2023-03-22T12:31:59.014Z,43.60
2023-03-22T12:36:02.626Z,43.97
2023-03-22T12:40:07.713Z,43.39
2023-03-22T12:44:13.725Z,42.98
2023-03-22T12:48:18.917Z,42.39
2023-03-22T12:52:23.832Z,43.17
2023-03-22T12:56:29.558Z,42.51
2023-03-22T13:00:34.645Z,42.22
2023-03-22T13:04:49.354Z,42.05
2023-03-22T13:09:17.694Z,42.81
2023-03-22T13:13:37.824Z,41.94
2023-03-22T13:17:44.834Z,40.81
2023-03-22T13:21:47.914Z,42.15
2023-03-22T13:25:59.854Z,42.12
2023-03-22T13:30:01.354Z,41.73
2023-03-22T13:34:04.393Z,42.16
2023-03-22T13:38:08.427Z,40.57
2023-03-22T13:42:18.016Z,41.67
2023-03-22T13:46:43.193Z,38.30
2023-03-22T13:50:45.997Z,38.36
2023-03-22T13:54:49.431Z,37.12
2023-03-22T13:58:51.716Z,38.37
2023-03-22T14:02:53.543Z,36.84
2023-03-22T14:06:58.503Z,36.77
2023-03-22T14:11:02.490Z,35.94
2023-03-22T14:15:06.501Z,35.60
2023-03-22T14:19:08.536Z,36.32
